Time;durP1;ratioP1;P1;durP2;ratioP2;P2;SDS_P1;SDS_P2;PMS_P1;PMS_P2;Temp;Humidity;BMP_temperature;BMP_pressure;BME280_temperature;BME280_humidity;BME280_pressure;Samples;Min_cycle;Max_cycle;Signal;HPM_P1;HPM_P2
2022/06/14 00:00:55;;;;;;;5.88;1.60;;;;;;;;;;5090714;28;20019;-75
2022/06/14 00:03:28;;;;;;;2.67;1.20;;;;;;;;;;5097375;28;20047;-75
2022/06/14 00:05:54;;;;;;;3.45;1.30;;;;;;;;;;5097614;28;20476;-73
2022/06/14 00:08:21;;;;;;;3.40;1.45;;;;;;;;;;5098233;28;20059;-72
2022/06/14 00:10:48;;;;;;;5.13;1.30;;;;;;;;;;5091044;28;20427;-69
2022/06/14 00:13:14;;;;;;;4.45;1.45;;;;;;;;;;5099025;28;20092;-71
2022/06/14 00:15:39;;;;;;;3.28;1.30;;;;;;;;;;5094384;28;20031;-72
2022/06/14 00:18:05;;;;;;;4.35;1.45;;;;;;;;;;5099809;28;20059;-69
2022/06/14 00:20:31;;;;;;;6.03;1.88;;;;;;;;;;5091266;28;20046;-72
2022/06/14 00:22:56;;;;;;;4.15;1.33;;;;;;;;;;5092904;28;20648;-71
2022/06/14 00:25:28;;;;;;;4.88;1.60;;;;;;;;;;5101135;28;20068;-74
2022/06/14 00:27:53;;;;;;;5.43;1.40;;;;;;;;;;5102063;28;20023;-71
2022/06/14 00:30:20;;;;;;;4.13;1.30;;;;;;;;;;5093438;28;20516;-75
2022/06/14 00:32:45;;;;;;;4.05;1.30;;;;;;;;;;5098316;28;20032;-73
2022/06/14 00:35:11;;;;;;;3.85;1.40;;;;;;;;;;5098447;28;20046;-72
2022/06/14 00:37:37;;;;;;;4.88;1.30;;;;;;;;;;5098977;28;20421;-72
2022/06/14 00:40:03;;;;;;;4.28;1.42;;;;;;;;;;5095972;28;20040;-74
2022/06/14 00:42:28;;;;;;;4.75;1.45;;;;;;;;;;5093470;28;20040;-74
2022/06/14 00:45:12;;;;;;;4.80;1.70;;;;;;;;;;5099418;28;20104;-70
2022/06/14 00:47:47;;;;;;;4.75;1.40;;;;;;;;;;5096507;28;20031;-72
2022/06/14 00:50:30;;;;;;;5.40;1.40;;;;;;;;;;5089614;28;20135;-72
2022/06/14 00:52:59;;;;;;;;;;;;;;;;;;5093407;28;20043;-72
2022/06/14 00:55:33;;;;;;;3.65;1.50;;;;;;;;;;5097170;28;19923;-74
2022/06/14 00:58:03;;;;;;;3.75;1.40;;;;;;;;;;5099224;28;20024;-70
2022/06/14 01:00:33;;;;;;;3.45;1.40;;;;;;;;;;5096181;28;20106;-70
2022/06/14 01:03:03;;;;;;;3.63;1.42;;;;;;;;;;5093077;27;20072;-75
2022/06/14 01:08:21;;;;;;;4.15;1.33;;;;;;;;;;5096509;28;20264;-72
2022/06/14 01:10:48;;;;;;;4.88;1.75;;;;;;;;;;5095033;27;20310;-73
2022/06/14 01:13:16;;;;;;;2.78;1.30;;;;;;;;;;5098998;28;20059;-70
2022/06/14 01:15:42;;;;;;;2.33;1.23;;;;;;;;;;5101312;28;20032;-72
2022/06/14 01:18:11;;;;;;;4.28;1.50;;;;;;;;;;5093920;28;20019;-69
2022/06/14 01:20:37;;;;;;;3.28;1.38;;;;;;;;;;5101330;28;20035;-70
2022/06/14 01:23:05;;;;;;;4.78;1.40;;;;;;;;;;5100891;27;20066;-72
2022/06/14 01:25:34;;;;;;;5.32;1.58;;;;;;;;;;5100021;28;20146;-74
2022/06/14 01:28:01;;;;;;;7.53;1.70;;;;;;;;;;5098366;27;20024;-72
2022/06/14 01:30:31;;;;;;;4.20;1.83;;;;;;;;;;5101133;28;20031;-71
2022/06/14 01:32:59;;;;;;;2.55;1.40;;;;;;;;;;5103481;27;20020;-72
2022/06/14 01:35:28;;;;;;;4.18;1.50;;;;;;;;;;5104631;27;20047;-69
2022/06/14 01:37:56;;;;;;;4.63;1.60;;;;;;;;;;5103397;27;20475;-69
2022/06/14 01:40:40;;;;;;;6.57;1.58;;;;;;;;;;5100646;27;20082;-70
2022/06/14 01:43:19;;;;;;;3.67;1.70;;;;;;;;;;5094271;27;20440;-72
2022/06/14 01:46:22;;;;;;;6.05;1.80;;;;;;;;;;5100141;28;20047;-75
2022/06/14 01:52:02;;;;;;;3.45;1.30;;;;;;;;;;5092963;27;20946;-69
2022/06/14 01:54:40;;;;;;;3.72;1.42;;;;;;;;;;5099251;27;20035;-75
2022/06/14 01:57:16;;;;;;;5.03;1.48;;;;;;;;;;5098284;27;20035;-74
2022/06/14 02:00:06;;;;;;;4.43;1.50;;;;;;;;;;5099762;27;20040;-74
2022/06/14 02:06:09;;;;;;;3.10;1.48;;;;;;;;;;5098152;28;20388;-75
2022/06/14 02:08:39;;;;;;;5.33;1.83;;;;;;;;;;5096294;27;20046;-73
2022/06/14 02:11:11;;;;;;;5.28;1.65;;;;;;;;;;5116650;27;20495;-75
2022/06/14 02:13:48;;;;;;;2.70;1.35;;;;;;;;;;5096278;27;20034;-69
2022/06/14 02:16:24;;;;;;;3.42;1.55;;;;;;;;;;5096343;27;20759;-74
2022/06/14 02:19:06;;;;;;;3.00;1.35;;;;;;;;;;5100165;28;20081;-74
2022/06/14 02:21:35;;;;;;;3.83;1.67;;;;;;;;;;5095618;28;20475;-74
2022/06/14 02:24:10;;;;;;;4.45;1.48;;;;;;;;;;5101265;27;20023;-74
2022/06/14 02:26:40;;;;;;;4.82;1.30;;;;;;;;;;5102226;28;20050;-69
2022/06/14 02:29:16;;;;;;;3.72;1.60;;;;;;;;;;5095650;27;20093;-73
2022/06/14 02:31:48;;;;;;;3.47;1.50;;;;;;;;;;5103410;28;20778;-74
2022/06/14 02:34:26;;;;;;;5.07;1.63;;;;;;;;;;5101461;27;20020;-73
2022/06/14 02:36:58;;;;;;;5.60;1.88;;;;;;;;;;5100975;27;21733;-75
2022/06/14 02:39:31;;;;;;;4.13;1.50;;;;;;;;;;5095825;28;20027;-74
2022/06/14 02:42:22;;;;;;;3.53;1.40;;;;;;;;;;5101848;28;20027;-71
2022/06/14 02:44:54;;;;;;;4.15;1.85;;;;;;;;;;5090713;27;20036;-74
2022/06/14 02:47:28;;;;;;;5.13;1.70;;;;;;;;;;5094181;28;20058;-74
2022/06/14 02:50:10;;;;;;;3.70;1.40;;;;;;;;;;5095050;27;20032;-74
2022/06/14 02:52:58;;;;;;;2.72;1.25;;;;;;;;;;5105170;28;20349;-74
2022/06/14 02:55:33;;;;;;;3.75;1.60;;;;;;;;;;5095755;27;20032;-71
2022/06/14 02:58:04;;;;;;;3.22;1.60;;;;;;;;;;5099124;27;20035;-70
2022/06/14 03:01:09;;;;;;;3.10;1.38;;;;;;;;;;5097770;28;20038;-70
2022/06/14 03:03:44;;;;;;;4.18;1.58;;;;;;;;;;5082954;28;20041;-70
2022/06/14 03:06:17;;;;;;;4.75;1.70;;;;;;;;;;5102635;28;20027;-72
2022/06/14 03:09:07;;;;;;;3.20;1.58;;;;;;;;;;5098773;27;20032;-74
2022/06/14 03:11:53;;;;;;;3.75;1.70;;;;;;;;;;5106776;27;20170;-75
2022/06/14 03:14:37;;;;;;;5.63;1.80;;;;;;;;;;5103388;27;20057;-75
2022/06/14 03:17:17;;;;;;;4.38;1.58;;;;;;;;;;5095432;27;20499;-74
2022/06/14 03:20:03;;;;;;;4.68;1.70;;;;;;;;;;5095020;27;20051;-76
2022/06/14 03:22:46;;;;;;;4.38;1.40;;;;;;;;;;5103598;28;20548;-74
2022/06/14 03:25:50;;;;;;;5.35;2.15;;;;;;;;;;5099637;28;20046;-70
2022/06/14 03:28:22;;;;;;;4.55;1.85;;;;;;;;;;5072873;28;20452;-74
2022/06/14 03:30:53;;;;;;;4.55;1.70;;;;;;;;;;5094594;27;20032;-71
2022/06/14 03:33:32;;;;;;;7.22;1.80;;;;;;;;;;5095086;28;20032;-70
2022/06/14 03:35:58;;;;;;;4.03;1.55;;;;;;;;;;5100686;27;20126;-74
2022/06/14 03:38:47;;;;;;;4.35;1.80;;;;;;;;;;5104300;27;20144;-71
2022/06/14 03:41:17;;;;;;;5.30;1.98;;;;;;;;;;5095823;28;20028;-73
2022/06/14 03:43:43;;;;;;;4.15;1.75;;;;;;;;;;5102451;28;20038;-72
2022/06/14 03:46:20;;;;;;;5.07;1.75;;;;;;;;;;5097433;28;20020;-69
2022/06/14 03:48:52;;;;;;;4.03;1.77;;;;;;;;;;5095280;27;20511;-70
2022/06/14 03:51:48;;;;;;;4.15;1.65;;;;;;;;;;5095641;28;20130;-71
2022/06/14 03:54:28;;;;;;;3.65;1.55;;;;;;;;;;5099476;28;20039;-70
2022/06/14 03:57:21;;;;;;;4.53;1.70;;;;;;;;;;5097333;28;20023;-71
2022/06/14 03:59:56;;;;;;;2.90;1.40;;;;;;;;;;5098374;28;20020;-75
2022/06/14 04:02:53;;;;;;;3.10;1.42;;;;;;;;;;5097293;28;20097;-73
2022/06/14 04:05:29;;;;;;;4.50;1.60;;;;;;;;;;5101964;28;20027;-74
2022/06/14 04:08:33;;;;;;;6.70;2.10;;;;;;;;;;5098709;28;20475;-72
2022/06/14 04:11:25;;;;;;;5.47;2.00;;;;;;;;;;5103558;28;20051;-72
2022/06/14 04:13:53;;;;;;;4.68;1.95;;;;;;;;;;5097571;28;20089;-74
2022/06/14 04:16:26;;;;;;;4.90;2.13;;;;;;;;;;5096016;28;20096;-74
2022/06/14 04:19:24;;;;;;;5.30;1.92;;;;;;;;;;5106605;28;20168;-72
2022/06/14 04:21:56;;;;;;;3.97;1.70;;;;;;;;;;5093706;28;20067;-74
2022/06/14 04:24:52;;;;;;;4.70;1.80;;;;;;;;;;5096720;28;20034;-70
2022/06/14 04:27:29;;;;;;;5.53;2.10;;;;;;;;;;5100059;28;20055;-75
2022/06/14 04:30:12;;;;;;;5.25;2.08;;;;;;;;;;5097161;28;20016;-74
2022/06/14 04:33:02;;;;;;;5.00;2.22;;;;;;;;;;5106675;28;20028;-74
2022/06/14 04:35:38;;;;;;;5.35;1.88;;;;;;;;;;5097381;28;20054;-74
2022/06/14 04:38:08;;;;;;;5.43;2.10;;;;;;;;;;5104032;28;20096;-76
2022/06/14 04:40:43;;;;;;;3.88;2.03;;;;;;;;;;5099083;28;20023;-71
2022/06/14 04:43:13;;;;;;;7.63;2.42;;;;;;;;;;5101533;28;20040;-74
2022/06/14 04:45:45;;;;;;;4.80;2.20;;;;;;;;;;5097556;28;20106;-73
2022/06/14 04:48:19;;;;;;;5.55;2.33;;;;;;;;;;5100392;28;20080;-73
2022/06/14 04:50:51;;;;;;;4.50;2.25;;;;;;;;;;5096871;28;20023;-73
2022/06/14 04:53:21;;;;;;;4.03;2.20;;;;;;;;;;5098225;28;20774;-73
2022/06/14 04:55:53;;;;;;;6.13;2.33;;;;;;;;;;5095328;28;20506;-73
2022/06/14 04:58:30;;;;;;;5.15;2.15;;;;;;;;;;5105101;28;20107;-75
2022/06/14 05:01:00;;;;;;;4.30;2.47;;;;;;;;;;5101613;27;20019;-74
2022/06/14 05:03:38;;;;;;;5.43;2.30;;;;;;;;;;5102835;27;20027;-76
2022/06/14 05:06:19;;;;;;;7.40;2.70;;;;;;;;;;5105749;28;20035;-69
2022/06/14 05:08:51;;;;;;;5.25;2.50;;;;;;;;;;5103550;28;21221;-73
2022/06/14 05:11:22;;;;;;;6.22;2.58;;;;;;;;;;5096665;27;20090;-73
2022/06/14 05:14:01;;;;;;;4.43;2.40;;;;;;;;;;5107803;27;20050;-71
2022/06/14 05:16:32;;;;;;;6.90;2.60;;;;;;;;;;5095013;27;20379;-74
2022/06/14 05:18:57;;;;;;;7.18;3.08;;;;;;;;;;5099330;28;20024;-71
2022/06/14 05:21:30;;;;;;;6.40;3.03;;;;;;;;;;5095218;27;20384;-73
2022/06/14 05:23:56;;;;;;;;;;;;;;;;;;5101553;28;20542;-71
2022/06/14 05:26:40;;;;;;;5.65;2.28;;;;;;;;;;5094593;27;19920;-73
2022/06/14 05:29:18;;;;;;;6.22;2.58;;;;;;;;;;5094878;28;20044;-72
2022/06/14 05:32:01;;;;;;;5.13;2.50;;;;;;;;;;5092869;27;20047;-73
2022/06/14 05:34:29;;;;;;;7.20;2.67;;;;;;;;;;5091107;27;22151;-70
2022/06/14 05:37:44;;;;;;;7.38;2.90;;;;;;;;;;5093319;27;20127;-73
2022/06/14 05:40:15;;;;;;;4.28;2.33;;;;;;;;;;5093058;27;20035;-75
2022/06/14 05:42:46;;;;;;;4.97;2.40;;;;;;;;;;5100830;28;21125;-74
2022/06/14 05:45:17;;;;;;;5.35;2.45;;;;;;;;;;5097567;27;20093;-74
2022/06/14 05:47:49;;;;;;;5.80;2.60;;;;;;;;;;5101450;27;20395;-74
2022/06/14 05:50:22;;;;;;;6.40;2.88;;;;;;;;;;5098302;27;20031;-71
2022/06/14 05:53:02;;;;;;;7.13;2.60;;;;;;;;;;5106012;28;20031;-73
2022/06/14 05:55:32;;;;;;;5.45;2.38;;;;;;;;;;5100195;28;20137;-69
2022/06/14 05:58:11;;;;;;;8.73;2.38;;;;;;;;;;5105750;27;20031;-74
2022/06/14 06:00:56;;;;;;;5.47;1.77;;;;;;;;;;5103766;27;20023;-74
2022/06/14 06:03:32;;;;;;;5.50;1.90;;;;;;;;;;5103084;28;20032;-74
2022/06/14 06:06:08;;;;;;;4.88;1.88;;;;;;;;;;5105184;28;20086;-69
2022/06/14 06:08:39;;;;;;;5.35;1.75;;;;;;;;;;5100347;28;20085;-73
2022/06/14 06:11:11;;;;;;;4.97;1.60;;;;;;;;;;5099830;28;20138;-69
2022/06/14 06:13:49;;;;;;;5.93;1.70;;;;;;;;;;5096463;27;20030;-74
2022/06/14 06:16:20;;;;;;;5.82;1.77;;;;;;;;;;5102367;28;20375;-72
2022/06/14 06:18:53;;;;;;;4.18;1.60;;;;;;;;;;5094987;27;20054;-72
2022/06/14 06:21:33;;;;;;;4.20;1.20;;;;;;;;;;5100188;28;20036;-75
2022/06/14 06:24:11;;;;;;;4.85;1.50;;;;;;;;;;5095026;27;20742;-74
2022/06/14 06:26:41;;;;;;;4.22;1.52;;;;;;;;;;5097958;27;20076;-69
2022/06/14 06:29:15;;;;;;;4.40;1.50;;;;;;;;;;5103378;27;20032;-75
2022/06/14 06:31:42;;;;;;;4.07;1.73;;;;;;;;;;5094148;28;20027;-71
2022/06/14 06:34:11;;;;;;;5.00;1.70;;;;;;;;;;5099935;27;20064;-71
2022/06/14 06:36:47;;;;;;;4.18;1.65;;;;;;;;;;5101116;28;20044;-70
2022/06/14 06:39:26;;;;;;;4.93;1.70;;;;;;;;;;5098048;28;20055;-69
2022/06/14 06:42:06;;;;;;;4.53;1.60;;;;;;;;;;5109726;27;20027;-73
2022/06/14 06:44:38;;;;;;;6.60;2.05;;;;;;;;;;5095405;28;20518;-73
2022/06/14 06:47:28;;;;;;;3.97;1.73;;;;;;;;;;5097905;27;20027;-72
2022/06/14 06:50:16;;;;;;;4.10;1.70;;;;;;;;;;5096680;28;20050;-71
2022/06/14 06:52:50;;;;;;;7.05;2.20;;;;;;;;;;5101844;28;20035;-74
2022/06/14 06:55:33;;;;;;;4.07;1.55;;;;;;;;;;5101018;28;20031;-71
2022/06/14 06:58:01;;;;;;;6.38;1.65;;;;;;;;;;5101623;28;20506;-72
2022/06/14 07:00:29;;;;;;;3.78;1.55;;;;;;;;;;5107070;28;20038;-70
2022/06/14 07:03:04;;;;;;;6.95;2.05;;;;;;;;;;5095280;27;20384;-72
2022/06/14 07:05:30;;;;;;;4.45;1.80;;;;;;;;;;5113097;27;20375;-74
2022/06/14 07:08:12;;;;;;;5.43;1.70;;;;;;;;;;5107395;28;20023;-71
2022/06/14 07:10:47;;;;;;;3.90;1.95;;;;;;;;;;5101309;28;20024;-69
2022/06/14 07:13:16;;;;;;;5.45;2.10;;;;;;;;;;5100487;28;20053;-74
2022/06/14 07:15:48;;;;;;;4.70;1.98;;;;;;;;;;5104544;28;20384;-68
2022/06/14 07:18:17;;;;;;;3.90;2.20;;;;;;;;;;5104691;28;20032;-69
2022/06/14 07:20:54;;;;;;;6.28;1.70;;;;;;;;;;5123037;27;20280;-75
2022/06/14 07:23:37;;;;;;;5.30;1.92;;;;;;;;;;5101349;28;20040;-74
2022/06/14 07:26:17;;;;;;;2.85;1.48;;;;;;;;;;5104249;28;20027;-69
2022/06/14 07:29:20;;;;;;;4.75;1.63;;;;;;;;;;5107012;28;20043;-71
2022/06/14 07:32:17;;;;;;;6.45;1.83;;;;;;;;;;5102373;28;20026;-70
2022/06/14 07:34:44;;;;;;;4.97;1.80;;;;;;;;;;5107008;28;20479;-75
2022/06/14 07:37:18;;;;;;;5.07;1.80;;;;;;;;;;5105678;28;20051;-70
2022/06/14 07:40:11;;;;;;;6.47;1.80;;;;;;;;;;5101881;28;20535;-74
2022/06/14 07:43:05;;;;;;;2.88;1.55;;;;;;;;;;5100141;28;20059;-71
2022/06/14 07:45:43;;;;;;;4.50;1.70;;;;;;;;;;5100265;28;20380;-75
2022/06/14 07:48:40;;;;;;;4.78;1.80;;;;;;;;;;5105418;28;20028;-74
2022/06/14 07:51:14;;;;;;;7.82;2.17;;;;;;;;;;5100378;28;20118;-72
2022/06/14 07:53:51;;;;;;;5.18;1.73;;;;;;;;;;5102504;28;20023;-74
2022/06/14 07:56:29;;;;;;;4.05;1.52;;;;;;;;;;5121068;27;20386;-74
2022/06/14 07:59:09;;;;;;;3.70;1.50;;;;;;;;;;5106647;28;20122;-75
2022/06/14 08:02:03;;;;;;;4.22;1.83;;;;;;;;;;5105765;28;20544;-74
2022/06/14 08:04:54;;;;;;;3.95;1.20;;;;;;;;;;5093271;28;20115;-71
2022/06/14 08:07:20;;;;;;;4.07;1.70;;;;;;;;;;5102427;28;20024;-72
2022/06/14 08:10:13;;;;;;;3.65;1.40;;;;;;;;;;5107999;28;20019;-74
2022/06/14 08:12:54;;;;;;;4.15;1.50;;;;;;;;;;5103120;28;20032;-72
2022/06/14 08:15:23;;;;;;;5.03;1.60;;;;;;;;;;5105103;28;20061;-69
2022/06/14 08:17:54;;;;;;;6.70;1.85;;;;;;;;;;5104840;28;20046;-71
2022/06/14 08:20:46;;;;;;;5.57;2.13;;;;;;;;;;5105081;28;20019;-75
2022/06/14 08:23:28;;;;;;;4.47;1.52;;;;;;;;;;5100324;28;20114;-70
2022/06/14 08:26:00;;;;;;;4.63;1.80;;;;;;;;;;5114459;28;20027;-74
2022/06/14 08:28:35;;;;;;;2.30;1.40;;;;;;;;;;5102885;28;20024;-73
2022/06/14 08:31:09;;;;;;;4.25;1.70;;;;;;;;;;5101702;28;20032;-75
2022/06/14 08:33:44;;;;;;;5.65;1.80;;;;;;;;;;5106259;28;20067;-74
2022/06/14 08:36:14;;;;;;;6.22;1.88;;;;;;;;;;5105138;28;20559;-75
2022/06/14 08:38:46;;;;;;;3.97;1.98;;;;;;;;;;5109968;28;20027;-69
2022/06/14 08:41:24;;;;;;;4.82;1.80;;;;;;;;;;5107110;28;20027;-74
2022/06/14 08:43:55;;;;;;;4.32;2.00;;;;;;;;;;5110969;27;20429;-75
2022/06/14 08:46:25;;;;;;;2.88;1.65;;;;;;;;;;5105517;28;20028;-70
2022/06/14 08:49:09;;;;;;;4.40;1.70;;;;;;;;;;5107950;28;20055;-74
2022/06/14 08:52:01;;;;;;;4.53;1.60;;;;;;;;;;5102032;28;20487;-72
2022/06/14 08:55:02;;;;;;;3.92;1.60;;;;;;;;;;5106697;28;20050;-75
2022/06/14 08:57:27;;;;;;;3.88;1.83;;;;;;;;;;5106149;28;20035;-75
2022/06/14 09:00:11;;;;;;;5.22;1.50;;;;;;;;;;5109998;28;20027;-74
2022/06/14 09:03:00;;;;;;;5.78;1.58;;;;;;;;;;5110267;28;20387;-75
2022/06/14 09:05:49;;;;;;;2.80;1.10;;;;;;;;;;5106247;28;20024;-74
2022/06/14 09:08:26;;;;;;;2.28;1.17;;;;;;;;;;5063063;28;20046;-74
2022/06/14 09:11:02;;;;;;;4.15;1.50;;;;;;;;;;5104611;28;20027;-75
2022/06/14 09:13:49;;;;;;;2.88;1.30;;;;;;;;;;5108721;28;20070;-69
2022/06/14 09:16:36;;;;;;;2.63;1.40;;;;;;;;;;5104839;28;20074;-70
2022/06/14 09:19:36;;;;;;;3.22;1.42;;;;;;;;;;5104763;28;20032;-74
2022/06/14 09:22:33;;;;;;;3.35;1.38;;;;;;;;;;5103920;28;20396;-71
2022/06/14 09:25:10;;;;;;;5.20;1.80;;;;;;;;;;5104789;28;20648;-74
2022/06/14 09:28:30;;;;;;;5.38;1.73;;;;;;;;;;5109636;28;20031;-70
2022/06/14 09:31:03;;;;;;;2.45;0.98;;;;;;;;;;5092777;28;20054;-75
2022/06/14 09:33:38;;;;;;;4.57;1.20;;;;;;;;;;5107862;28;20032;-73
2022/06/14 09:36:12;;;;;;;4.68;1.60;;;;;;;;;;5108377;28;20048;-74
2022/06/14 09:39:07;;;;;;;3.05;1.13;;;;;;;;;;5110254;27;20024;-70
2022/06/14 09:42:02;;;;;;;4.70;1.35;;;;;;;;;;5107517;28;20102;-74
2022/06/14 09:45:06;;;;;;;4.22;0.98;;;;;;;;;;5107007;27;20120;-75
2022/06/14 09:48:05;;;;;;;3.78;1.30;;;;;;;;;;5076812;28;20027;-75
2022/06/14 09:51:06;;;;;;;3.85;1.00;;;;;;;;;;5108095;27;20031;-75
2022/06/14 09:53:31;;;;;;;3.75;1.10;;;;;;;;;;5084244;27;20035;-75
2022/06/14 09:56:26;;;;;;;4.28;1.15;;;;;;;;;;5102091;27;20035;-75
2022/06/14 09:59:01;;;;;;;4.18;1.40;;;;;;;;;;5103684;28;20027;-72
2022/06/14 10:01:55;;;;;;;4.05;1.05;;;;;;;;;;5101526;28;20019;-75
2022/06/14 10:04:50;;;;;;;3.25;1.08;;;;;;;;;;5081235;27;20058;-74
2022/06/14 10:07:40;;;;;;;3.88;1.27;;;;;;;;;;5091486;28;20032;-74
2022/06/14 10:10:18;;;;;;;1.73;0.80;;;;;;;;;;5102418;27;20050;-70
2022/06/14 10:13:05;;;;;;;3.55;1.10;;;;;;;;;;5105491;28;20034;-73
2022/06/14 10:15:51;;;;;;;3.70;1.25;;;;;;;;;;5109199;28;20051;-72
2022/06/14 10:18:29;;;;;;;2.67;1.17;;;;;;;;;;5110884;28;20027;-75
2022/06/14 10:21:08;;;;;;;3.20;1.10;;;;;;;;;;5100551;28;20012;-72
2022/06/14 10:23:49;;;;;;;2.25;1.20;;;;;;;;;;5109597;28;20020;-73
2022/06/14 10:29:32;;;;;;;3.00;1.52;;;;;;;;;;5110562;28;20491;-72
2022/06/14 10:32:00;;;;;;;;;;;;;;;;;;5097834;28;20107;-74
2022/06/14 10:34:44;;;;;;;3.40;1.10;;;;;;;;;;5090898;27;19929;-73
2022/06/14 10:37:09;;;;;;;3.25;1.42;;;;;;;;;;5097777;28;20149;-70
2022/06/14 10:39:53;;;;;;;1.52;0.70;;;;;;;;;;5100860;27;20135;-70
2022/06/14 10:42:26;;;;;;;3.25;1.10;;;;;;;;;;5099463;28;20035;-73
2022/06/14 10:45:28;;;;;;;1.52;0.93;;;;;;;;;;5102148;28;20107;-74
2022/06/14 10:48:18;;;;;;;3.42;1.00;;;;;;;;;;5097452;28;20854;-75
2022/06/14 10:50:56;;;;;;;3.22;0.93;;;;;;;;;;5100472;28;20079;-75
2022/06/14 10:53:35;;;;;;;4.95;1.52;;;;;;;;;;5095485;27;20388;-75
2022/06/14 10:56:03;;;;;;;2.72;0.90;;;;;;;;;;5099871;28;20491;-75
2022/06/14 10:59:02;;;;;;;2.83;1.30;;;;;;;;;;5095621;28;20027;-73
2022/06/14 11:01:50;;;;;;;3.92;1.08;;;;;;;;;;5097202;28;20197;-71
2022/06/14 11:04:21;;;;;;;2.80;1.17;;;;;;;;;;5101285;28;20023;-72
2022/06/14 11:06:49;;;;;;;3.92;1.23;;;;;;;;;;5098463;28;20023;-75
2022/06/14 11:09:49;;;;;;;3.80;1.20;;;;;;;;;;5099232;28;20096;-74
2022/06/14 11:12:27;;;;;;;2.83;1.10;;;;;;;;;;5100803;28;20116;-75
2022/06/14 11:15:08;;;;;;;4.38;1.35;;;;;;;;;;5099060;27;20109;-74
2022/06/14 11:17:52;;;;;;;3.65;1.35;;;;;;;;;;5098591;28;20019;-72
2022/06/14 11:20:42;;;;;;;2.65;1.30;;;;;;;;;;5101185;28;20031;-72
2022/06/14 11:23:18;;;;;;;3.08;1.58;;;;;;;;;;5110021;27;20036;-70
2022/06/14 11:26:10;;;;;;;4.03;1.20;;;;;;;;;;5097281;28;20115;-74
2022/06/14 11:28:49;;;;;;;3.38;1.30;;;;;;;;;;5101009;28;20535;-73
2022/06/14 11:31:26;;;;;;;3.60;1.42;;;;;;;;;;5094984;28;20023;-73
2022/06/14 11:34:17;;;;;;;5.45;1.70;;;;;;;;;;5096575;27;20032;-73
2022/06/14 11:36:58;;;;;;;4.40;1.20;;;;;;;;;;5100848;27;20134;-71
2022/06/14 11:39:48;;;;;;;3.92;1.17;;;;;;;;;;5101280;27;20068;-72
2022/06/14 11:42:24;;;;;;;2.72;1.08;;;;;;;;;;5101733;28;20015;-75
2022/06/14 11:45:17;;;;;;;3.78;1.42;;;;;;;;;;5112018;27;20077;-73
2022/06/14 11:47:51;;;;;;;3.55;1.40;;;;;;;;;;5100618;28;20030;-70
2022/06/14 11:50:26;;;;;;;3.50;1.50;;;;;;;;;;5096695;28;20032;-72
2022/06/14 11:53:17;;;;;;;4.85;1.80;;;;;;;;;;5097523;28;20555;-71
2022/06/14 11:55:51;;;;;;;3.25;1.40;;;;;;;;;;5099926;28;20020;-72
2022/06/14 11:58:37;;;;;;;3.90;1.70;;;;;;;;;;5099707;28;20074;-76
2022/06/14 12:01:28;;;;;;;4.30;1.40;;;;;;;;;;5097798;28;20042;-75
2022/06/14 12:04:15;;;;;;;4.47;1.40;;;;;;;;;;5100659;28;20027;-74
2022/06/14 12:07:02;;;;;;;4.65;1.30;;;;;;;;;;5098542;28;20467;-75
2022/06/14 12:09:31;;;;;;;4.70;1.20;;;;;;;;;;5097268;28;20079;-70
2022/06/14 12:12:04;;;;;;;3.38;1.10;;;;;;;;;;5089830;28;20615;-75
2022/06/14 12:15:06;;;;;;;5.55;1.20;;;;;;;;;;5097984;28;20677;-74
2022/06/14 12:17:37;;;;;;;3.17;1.30;;;;;;;;;;5099348;28;20034;-75
2022/06/14 12:20:10;;;;;;;4.68;1.48;;;;;;;;;;5094709;28;20043;-74
2022/06/14 12:23:15;;;;;;;3.33;1.20;;;;;;;;;;5098825;28;20417;-71
2022/06/14 12:29:04;;;;;;;2.80;1.27;;;;;;;;;;5101034;28;20037;-73
2022/06/14 12:31:39;;;;;;;3.90;1.40;;;;;;;;;;5110482;28;22547;-74
2022/06/14 12:34:13;;;;;;;5.22;1.40;;;;;;;;;;5100488;28;20028;-74
2022/06/14 12:37:18;;;;;;;2.65;1.10;;;;;;;;;;5099481;28;20547;-73
2022/06/14 12:40:15;;;;;;;2.33;1.00;;;;;;;;;;5098324;28;20069;-70
2022/06/14 12:42:58;;;;;;;3.25;1.27;;;;;;;;;;5099543;28;20379;-71
2022/06/14 12:45:32;;;;;;;4.55;1.42;;;;;;;;;;5099593;28;20531;-74
2022/06/14 12:48:20;;;;;;;4.30;1.10;;;;;;;;;;5097578;28;20138;-71
2022/06/14 12:50:55;;;;;;;4.80;1.30;;;;;;;;;;5090791;28;20024;-74
2022/06/14 12:53:39;;;;;;;3.50;1.20;;;;;;;;;;5094822;28;20032;-70
2022/06/14 12:56:14;;;;;;;3.55;1.45;;;;;;;;;;5100425;28;20028;-73
2022/06/14 12:59:03;;;;;;;4.40;1.38;;;;;;;;;;5096885;28;20084;-74
2022/06/14 13:01:50;;;;;;;2.53;1.35;;;;;;;;;;5096968;28;20026;-74
2022/06/14 13:04:24;;;;;;;3.50;1.08;;;;;;;;;;5095737;28;20011;-72
2022/06/14 13:07:18;;;;;;;3.15;1.23;;;;;;;;;;5098848;28;20039;-72
2022/06/14 13:10:21;;;;;;;3.17;1.20;;;;;;;;;;5098311;28;20524;-73
2022/06/14 13:13:17;;;;;;;3.33;1.10;;;;;;;;;;5098411;28;20027;-73
2022/06/14 13:16:00;;;;;;;3.28;1.30;;;;;;;;;;5098672;28;20035;-75
2022/06/14 13:18:28;;;;;;;3.42;1.20;;;;;;;;;;5096766;28;20028;-73
2022/06/14 13:20:58;;;;;;;3.00;1.30;;;;;;;;;;5103497;28;20031;-75
2022/06/14 13:23:42;;;;;;;2.85;1.10;;;;;;;;;;5104696;28;20106;-71
2022/06/14 13:26:49;;;;;;;5.25;2.00;;;;;;;;;;5102833;28;20535;-72
2022/06/14 13:29:52;;;;;;;3.03;1.10;;;;;;;;;;5073754;28;20048;-72
2022/06/14 13:32:47;;;;;;;4.30;1.30;;;;;;;;;;5058928;28;20398;-71
2022/06/14 13:35:26;;;;;;;2.38;1.20;;;;;;;;;;5091944;27;20032;-74
2022/06/14 13:38:00;;;;;;;2.58;1.20;;;;;;;;;;5097293;28;20028;-72
2022/06/14 13:40:29;;;;;;;2.80;1.15;;;;;;;;;;5097973;28;20545;-72
2022/06/14 13:43:28;;;;;;;6.68;1.42;;;;;;;;;;5100523;27;20024;-74
2022/06/14 13:46:18;;;;;;;3.50;1.13;;;;;;;;;;5099829;27;20023;-74
2022/06/14 13:49:18;;;;;;;4.47;1.35;;;;;;;;;;5096204;28;20066;-73
2022/06/14 13:52:12;;;;;;;4.70;1.42;;;;;;;;;;5102505;28;20163;-72
2022/06/14 13:54:46;;;;;;;3.45;1.38;;;;;;;;;;5119708;27;20027;-73
2022/06/14 13:57:29;;;;;;;3.05;1.10;;;;;;;;;;5101620;28;20032;-75
2022/06/14 14:00:02;;;;;;;5.50;1.42;;;;;;;;;;5102413;28;20024;-74
2022/06/14 14:02:58;;;;;;;4.25;1.48;;;;;;;;;;5102539;28;20028;-72
2022/06/14 14:05:31;;;;;;;2.63;1.25;;;;;;;;;;5081597;28;22010;-73
2022/06/14 14:08:17;;;;;;;2.70;1.40;;;;;;;;;;5101885;28;20023;-74
2022/06/14 14:10:49;;;;;;;2.83;1.17;;;;;;;;;;5099359;28;20032;-70
2022/06/14 14:13:38;;;;;;;3.00;1.20;;;;;;;;;;5102624;28;20092;-74
2022/06/14 14:16:43;;;;;;;2.55;1.15;;;;;;;;;;5100665;28;20034;-70
2022/06/14 14:19:46;;;;;;;4.22;1.27;;;;;;;;;;5061442;28;20115;-71
2022/06/14 14:22:29;;;;;;;4.47;1.50;;;;;;;;;;5098489;27;20034;-74
2022/06/14 14:25:02;;;;;;;2.25;1.08;;;;;;;;;;5097534;28;20036;-72
2022/06/14 14:28:14;;;;;;;4.18;1.13;;;;;;;;;;5107341;28;20024;-73
2022/06/14 14:31:00;;;;;;;3.72;1.20;;;;;;;;;;5040713;28;20041;-73
2022/06/14 14:33:28;;;;;;;4.43;1.30;;;;;;;;;;5102457;28;20030;-74
2022/06/14 14:35:58;;;;;;;5.05;1.40;;;;;;;;;;5103149;28;20119;-71
2022/06/14 14:38:32;;;;;;;3.72;1.17;;;;;;;;;;5103532;28;20493;-74
2022/06/14 14:43:54;;;;;;;3.03;1.20;;;;;;;;;;5100088;28;20038;-70
2022/06/14 14:46:34;;;;;;;2.50;1.13;;;;;;;;;;5103553;28;20035;-72
2022/06/14 14:49:05;;;;;;;2.63;1.10;;;;;;;;;;5101321;28;20023;-72
2022/06/14 14:51:33;;;;;;;4.55;1.30;;;;;;;;;;5101019;28;20033;-70
2022/06/14 14:54:08;;;;;;;4.38;1.50;;;;;;;;;;5096530;28;20036;-71
2022/06/14 14:57:03;;;;;;;3.65;1.30;;;;;;;;;;5102185;28;20369;-74
2022/06/14 14:59:36;;;;;;;3.15;1.30;;;;;;;;;;5100499;28;20020;-74
2022/06/14 15:07:52;;;;;;;3.90;1.10;;;;;;;;;;5102980;28;20042;-73
2022/06/14 15:10:22;;;;;;;3.60;1.33;;;;;;;;;;5102424;28;20030;-75
2022/06/14 15:12:56;;;;;;;3.25;1.33;;;;;;;;;;5103129;28;20082;-74
2022/06/14 15:15:26;;;;;;;3.67;1.40;;;;;;;;;;5102224;28;20027;-73
2022/06/14 15:20:58;;;;;;;4.13;1.20;;;;;;;;;;5101698;28;20030;-71
2022/06/14 15:23:46;;;;;;;4.35;1.63;;;;;;;;;;5102551;28;20028;-72
2022/06/14 15:26:23;;;;;;;3.10;1.30;;;;;;;;;;5103171;28;20026;-70
2022/06/14 15:28:57;;;;;;;2.33;1.02;;;;;;;;;;5103380;28;20078;-74
2022/06/14 15:31:25;;;;;;;4.20;1.40;;;;;;;;;;5102561;28;20059;-74
2022/06/14 15:34:00;;;;;;;3.28;1.30;;;;;;;;;;5105630;28;20036;-72
2022/06/14 15:36:51;;;;;;;2.10;1.00;;;;;;;;;;5095118;28;20958;-74
2022/06/14 15:39:33;;;;;;;3.50;1.30;;;;;;;;;;5097734;28;20024;-72
2022/06/14 15:42:29;;;;;;;5.43;1.30;;;;;;;;;;5106244;28;20077;-70
2022/06/14 15:44:55;;;;;;;1.92;1.20;;;;;;;;;;5102874;28;20070;-75
2022/06/14 15:47:37;;;;;;;4.80;1.60;;;;;;;;;;5100602;28;20038;-75
2022/06/14 15:50:22;;;;;;;3.30;1.55;;;;;;;;;;5104663;28;20035;-74
2022/06/14 15:52:48;;;;;;;3.63;1.23;;;;;;;;;;5105327;28;20122;-74
2022/06/14 15:55:21;;;;;;;3.92;1.20;;;;;;;;;;5099609;28;20035;-74
2022/06/14 15:58:19;;;;;;;2.88;1.17;;;;;;;;;;5087870;28;20507;-73
2022/06/14 16:00:58;;;;;;;3.58;1.50;;;;;;;;;;5102963;28;20034;-74
2022/06/14 16:03:33;;;;;;;4.43;1.20;;;;;;;;;;5096884;28;20125;-73
2022/06/14 16:06:03;;;;;;;2.78;1.20;;;;;;;;;;5100374;28;20265;-74
2022/06/14 16:08:36;;;;;;;3.20;1.23;;;;;;;;;;5098362;28;21334;-74
2022/06/14 16:11:03;;;;;;;;;;;;;;;;;;5098223;28;20044;-73
2022/06/14 16:13:36;;;;;;;3.63;1.20;;;;;;;;;;5096971;28;19916;-75
2022/06/14 16:16:22;;;;;;;6.43;1.42;;;;;;;;;;5102770;28;20038;-71
2022/06/14 16:18:48;;;;;;;3.83;1.13;;;;;;;;;;5099768;28;20024;-73
2022/06/14 16:21:29;;;;;;;4.00;1.40;;;;;;;;;;5103232;28;20584;-72